Leominster, Massachusetts
Current Conditions -  °F | °C
As of 8:52 AM on Sunday 25 Jan 2015 (Local Time) from KFIT Reporting Station
Broken Clouds Broken Clouds  
Wind Chill: 27°   Ceiling: 6000
Heat Index: 36°   Visibility: 10mi
Dew Point: 19°   Wind: 14mph
Humidity: 50%   Direction: 260°W
Pressure: 29.53"   Gusts: NA
Location:  42.53°N, 71.76°W
Report Text: KFIT 251352Z AUTO 26012KT 10SM BKN060 02/M07 A2953 RMK AO2 SNE01 SLP002 P0000 T00221072
Loading
Personal Weather Stations






























Interactive Weather Map New forecast layout! Learn more

10-Day Weather Forecast

Advertisements
Track Severe Weather on mobile